sensor_id;sensor_type;location;lat;lon;timestamp;temperature;humidity
8896;DHT22;4484;48.928;10.066;2022-12-29T00:02:20;6.40;99.90
8896;DHT22;4484;48.928;10.066;2022-12-29T00:04:49;6.40;99.90
8896;DHT22;4484;48.928;10.066;2022-12-29T00:07:17;6.40;99.90
8896;DHT22;4484;48.928;10.066;2022-12-29T00:09:44;6.30;99.90
8896;DHT22;4484;48.928;10.066;2022-12-29T00:12:11;6.30;99.90
8896;DHT22;4484;48.928;10.066;2022-12-29T00:14:38;6.30;99.90
8896;DHT22;4484;48.928;10.066;2022-12-29T00:17:23;6.30;99.90
8896;DHT22;4484;48.928;10.066;2022-12-29T00:19:52;6.30;99.90
8896;DHT22;4484;48.928;10.066;2022-12-29T00:22:44;6.30;99.90
8896;DHT22;4484;48.928;10.066;2022-12-29T00:25:30;6.30;99.90
8896;DHT22;4484;48.928;10.066;2022-12-29T00:28:15;6.40;99.90
8896;DHT22;4484;48.928;10.066;2022-12-29T00:31:00;6.40;99.90
8896;DHT22;4484;48.928;10.066;2022-12-29T00:33:46;6.40;99.90
8896;DHT22;4484;48.928;10.066;2022-12-29T00:36:36;6.40;99.90
8896;DHT22;4484;48.928;10.066;2022-12-29T00:39:14;6.40;99.90
8896;DHT22;4484;48.928;10.066;2022-12-29T00:42:06;6.40;99.90
8896;DHT22;4484;48.928;10.066;2022-12-29T00:44:51;6.40;99.90
8896;DHT22;4484;48.928;10.066;2022-12-29T00:47:18;6.40;99.90
8896;DHT22;4484;48.928;10.066;2022-12-29T00:49:45;6.50;99.90
8896;DHT22;4484;48.928;10.066;2022-12-29T00:52:13;6.50;99.90
8896;DHT22;4484;48.928;10.066;2022-12-29T00:54:41;6.50;99.90
8896;DHT22;4484;48.928;10.066;2022-12-29T00:57:09;6.50;99.90
8896;DHT22;4484;48.928;10.066;2022-12-29T00:59:41;6.60;99.90
8896;DHT22;4484;48.928;10.066;2022-12-29T01:02:09;6.60;99.90
8896;DHT22;4484;48.928;10.066;2022-12-29T01:04:36;6.60;99.90
8896;DHT22;4484;48.928;10.066;2022-12-29T01:07:04;6.60;99.90
8896;DHT22;4484;48.928;10.066;2022-12-29T01:09:31;6.70;99.90
8896;DHT22;4484;48.928;10.066;2022-12-29T01:12:17;6.80;99.90
8896;DHT22;4484;48.928;10.066;2022-12-29T01:15:04;6.80;99.90
8896;DHT22;4484;48.928;10.066;2022-12-29T01:17:31;6.90;99.90
8896;DHT22;4484;48.928;10.066;2022-12-29T01:19:58;6.90;99.90
8896;DHT22;4484;48.928;10.066;2022-12-29T01:22:25;6.90;99.90
8896;DHT22;4484;48.928;10.066;2022-12-29T01:24:52;7.00;99.90
8896;DHT22;4484;48.928;10.066;2022-12-29T01:27:18;7.00;99.90
8896;DHT22;4484;48.928;10.066;2022-12-29T01:29:45;7.10;99.90
8896;DHT22;4484;48.928;10.066;2022-12-29T01:32:12;7.10;99.90
8896;DHT22;4484;48.928;10.066;2022-12-29T01:34:39;7.10;99.90
8896;DHT22;4484;48.928;10.066;2022-12-29T01:37:06;7.20;99.90
8896;DHT22;4484;48.928;10.066;2022-12-29T01:39:33;7.20;99.90
8896;DHT22;4484;48.928;10.066;2022-12-29T01:42:00;7.30;99.90
8896;DHT22;4484;48.928;10.066;2022-12-29T01:44:57;7.30;99.90
8896;DHT22;4484;48.928;10.066;2022-12-29T01:47:31;7.40;99.90
8896;DHT22;4484;48.928;10.066;2022-12-29T01:50:09;7.40;99.90
8896;DHT22;4484;48.928;10.066;2022-12-29T01:52:40;7.40;99.90
8896;DHT22;4484;48.928;10.066;2022-12-29T01:55:10;7.40;99.90
8896;DHT22;4484;48.928;10.066;2022-12-29T01:57:42;7.40;99.90
8896;DHT22;4484;48.928;10.066;2022-12-29T02:00:12;7.40;99.90
8896;DHT22;4484;48.928;10.066;2022-12-29T02:02:46;7.40;99.90
8896;DHT22;4484;48.928;10.066;2022-12-29T02:05:21;7.40;99.90
8896;DHT22;4484;48.928;10.066;2022-12-29T02:07:50;7.40;99.90
8896;DHT22;4484;48.928;10.066;2022-12-29T02:10:21;7.40;99.90
8896;DHT22;4484;48.928;10.066;2022-12-29T02:12:48;7.40;99.90
8896;DHT22;4484;48.928;10.066;2022-12-29T02:15:15;7.40;99.90
8896;DHT22;4484;48.928;10.066;2022-12-29T02:18:18;7.30;99.90
8896;DHT22;4484;48.928;10.066;2022-12-29T02:21:19;7.30;99.90
8896;DHT22;4484;48.928;10.066;2022-12-29T02:24:24;7.30;99.90
8896;DHT22;4484;48.928;10.066;2022-12-29T02:30:08;7.30;99.90
8896;DHT22;4484;48.928;10.066;2022-12-29T02:35:35;7.30;99.90
8896;DHT22;4484;48.928;10.066;2022-12-29T02:41:02;7.30;99.90
8896;DHT22;4484;48.928;10.066;2022-12-29T02:43:35;7.30;99.90
8896;DHT22;4484;48.928;10.066;2022-12-29T02:51:29;7.30;99.90
8896;DHT22;4484;48.928;10.066;2022-12-29T02:53:59;7.40;99.90
8896;DHT22;4484;48.928;10.066;2022-12-29T02:56:45;7.40;99.90
8896;DHT22;4484;48.928;10.066;2022-12-29T02:59:12;7.30;99.90
8896;DHT22;4484;48.928;10.066;2022-12-29T03:02:03;7.30;99.90
8896;DHT22;4484;48.928;10.066;2022-12-29T03:10:24;7.30;99.90
8896;DHT22;4484;48.928;10.066;2022-12-29T03:13:02;7.30;99.90
8896;DHT22;4484;48.928;10.066;2022-12-29T03:15:59;7.30;99.90
8896;DHT22;4484;48.928;10.066;2022-12-29T03:19:00;7.20;99.90
8896;DHT22;4484;48.928;10.066;2022-12-29T03:21:38;7.30;99.90
8896;DHT22;4484;48.928;10.066;2022-12-29T03:24:28;7.30;99.90
8896;DHT22;4484;48.928;10.066;2022-12-29T03:26:59;7.30;99.90
8896;DHT22;4484;48.928;10.066;2022-12-29T03:29:36;7.30;99.90
8896;DHT22;4484;48.928;10.066;2022-12-29T03:32:08;7.30;99.90
8896;DHT22;4484;48.928;10.066;2022-12-29T03:34:38;7.30;99.90
8896;DHT22;4484;48.928;10.066;2022-12-29T03:37:09;7.20;99.90
8896;DHT22;4484;48.928;10.066;2022-12-29T03:39:38;7.20;99.90
8896;DHT22;4484;48.928;10.066;2022-12-29T03:42:08;7.20;99.90
8896;DHT22;4484;48.928;10.066;2022-12-29T03:44:38;7.20;99.90
8896;DHT22;4484;48.928;10.066;2022-12-29T03:47:11;7.20;99.90
8896;DHT22;4484;48.928;10.066;2022-12-29T03:49:38;7.20;99.90
8896;DHT22;4484;48.928;10.066;2022-12-29T03:52:07;7.20;99.90
8896;DHT22;4484;48.928;10.066;2022-12-29T03:54:40;7.20;99.90
8896;DHT22;4484;48.928;10.066;2022-12-29T03:57:08;7.20;99.90
8896;DHT22;4484;48.928;10.066;2022-12-29T03:59:55;7.10;99.90
8896;DHT22;4484;48.928;10.066;2022-12-29T04:02:22;7.10;99.90
8896;DHT22;4484;48.928;10.066;2022-12-29T04:04:49;7.10;99.90
8896;DHT22;4484;48.928;10.066;2022-12-29T04:07:16;7.10;99.90
8896;DHT22;4484;48.928;10.066;2022-12-29T04:09:43;7.00;99.90
8896;DHT22;4484;48.928;10.066;2022-12-29T04:12:16;6.90;99.90
8896;DHT22;4484;48.928;10.066;2022-12-29T04:14:43;6.90;99.90
8896;DHT22;4484;48.928;10.066;2022-12-29T04:17:11;6.90;99.90
8896;DHT22;4484;48.928;10.066;2022-12-29T04:19:38;6.80;99.90
8896;DHT22;4484;48.928;10.066;2022-12-29T04:22:05;6.80;99.90
8896;DHT22;4484;48.928;10.066;2022-12-29T04:24:33;6.80;99.90
8896;DHT22;4484;48.928;10.066;2022-12-29T04:27:00;6.90;99.90
8896;DHT22;4484;48.928;10.066;2022-12-29T04:29:46;6.90;99.90
8896;DHT22;4484;48.928;10.066;2022-12-29T04:32:31;6.90;99.90
8896;DHT22;4484;48.928;10.066;2022-12-29T04:34:59;6.90;99.90
8896;DHT22;4484;48.928;10.066;2022-12-29T04:37:27;6.90;99.90
8896;DHT22;4484;48.928;10.066;2022-12-29T04:39:54;6.90;99.90
8896;DHT22;4484;48.928;10.066;2022-12-29T04:42:22;6.80;99.90
8896;DHT22;4484;48.928;10.066;2022-12-29T04:44:49;6.80;99.90
8896;DHT22;4484;48.928;10.066;2022-12-29T04:47:32;6.80;99.90
8896;DHT22;4484;48.928;10.066;2022-12-29T04:50:22;6.80;99.90
8896;DHT22;4484;48.928;10.066;2022-12-29T04:53:15;6.70;99.90
8896;DHT22;4484;48.928;10.066;2022-12-29T04:55:48;6.60;99.90
8896;DHT22;4484;48.928;10.066;2022-12-29T04:58:16;6.70;99.90
8896;DHT22;4484;48.928;10.066;2022-12-29T05:00:48;6.70;99.90
8896;DHT22;4484;48.928;10.066;2022-12-29T05:03:16;6.60;99.90
8896;DHT22;4484;48.928;10.066;2022-12-29T05:05:44;6.70;99.90
8896;DHT22;4484;48.928;10.066;2022-12-29T05:08:11;6.70;99.90
8896;DHT22;4484;48.928;10.066;2022-12-29T05:10:43;6.70;99.90
8896;DHT22;4484;48.928;10.066;2022-12-29T05:13:11;6.60;99.90
8896;DHT22;4484;48.928;10.066;2022-12-29T05:15:38;6.70;99.90
8896;DHT22;4484;48.928;10.066;2022-12-29T05:18:06;6.60;99.90
8896;DHT22;4484;48.928;10.066;2022-12-29T05:20:33;6.70;99.90
8896;DHT22;4484;48.928;10.066;2022-12-29T05:23:00;6.70;99.90
8896;DHT22;4484;48.928;10.066;2022-12-29T05:25:27;6.70;99.90
8896;DHT22;4484;48.928;10.066;2022-12-29T05:28:13;6.70;99.90
8896;DHT22;4484;48.928;10.066;2022-12-29T05:30:50;6.70;99.90
8896;DHT22;4484;48.928;10.066;2022-12-29T05:33:18;6.70;99.90
8896;DHT22;4484;48.928;10.066;2022-12-29T05:35:47;6.70;99.90
8896;DHT22;4484;48.928;10.066;2022-12-29T05:38:14;6.70;99.90
8896;DHT22;4484;48.928;10.066;2022-12-29T05:40:43;6.70;99.90
8896;DHT22;4484;48.928;10.066;2022-12-29T05:43:42;6.60;99.90
8896;DHT22;4484;48.928;10.066;2022-12-29T05:46:16;6.60;99.90
8896;DHT22;4484;48.928;10.066;2022-12-29T05:49:13;6.60;99.90
8896;DHT22;4484;48.928;10.066;2022-12-29T05:51:57;6.50;99.90
8896;DHT22;4484;48.928;10.066;2022-12-29T05:54:24;6.50;99.90
8896;DHT22;4484;48.928;10.066;2022-12-29T05:56:52;6.50;99.90
8896;DHT22;4484;48.928;10.066;2022-12-29T05:59:19;6.50;99.90
8896;DHT22;4484;48.928;10.066;2022-12-29T06:01:47;6.40;99.90
8896;DHT22;4484;48.928;10.066;2022-12-29T06:04:14;6.40;99.90
8896;DHT22;4484;48.928;10.066;2022-12-29T06:06:41;6.40;99.90
8896;DHT22;4484;48.928;10.066;2022-12-29T06:09:16;6.40;99.90
8896;DHT22;4484;48.928;10.066;2022-12-29T06:11:43;6.40;99.90
8896;DHT22;4484;48.928;10.066;2022-12-29T06:14:10;6.40;99.90
8896;DHT22;4484;48.928;10.066;2022-12-29T06:16:37;6.40;99.90
8896;DHT22;4484;48.928;10.066;2022-12-29T06:19:08;6.40;99.90
8896;DHT22;4484;48.928;10.066;2022-12-29T06:21:35;6.30;99.90
8896;DHT22;4484;48.928;10.066;2022-12-29T06:24:02;6.30;99.90
8896;DHT22;4484;48.928;10.066;2022-12-29T06:26:29;6.20;99.90
8896;DHT22;4484;48.928;10.066;2022-12-29T06:28:56;6.20;99.90
8896;DHT22;4484;48.928;10.066;2022-12-29T06:31:23;6.20;99.90
8896;DHT22;4484;48.928;10.066;2022-12-29T06:33:50;6.20;99.90
8896;DHT22;4484;48.928;10.066;2022-12-29T06:36:17;6.10;99.90
8896;DHT22;4484;48.928;10.066;2022-12-29T06:38:44;6.10;99.90
8896;DHT22;4484;48.928;10.066;2022-12-29T06:41:11;6.10;99.90
8896;DHT22;4484;48.928;10.066;2022-12-29T06:44:13;6.10;99.90
8896;DHT22;4484;48.928;10.066;2022-12-29T06:46:56;6.10;99.90
8896;DHT22;4484;48.928;10.066;2022-12-29T06:49:24;6.10;99.90
8896;DHT22;4484;48.928;10.066;2022-12-29T06:51:50;6.10;99.90
8896;DHT22;4484;48.928;10.066;2022-12-29T06:54:17;6.10;99.90
8896;DHT22;4484;48.928;10.066;2022-12-29T06:56:44;6.00;99.90
8896;DHT22;4484;48.928;10.066;2022-12-29T06:59:11;6.00;99.90
8896;DHT22;4484;48.928;10.066;2022-12-29T07:01:38;6.00;99.90
8896;DHT22;4484;48.928;10.066;2022-12-29T07:04:05;6.00;99.90
8896;DHT22;4484;48.928;10.066;2022-12-29T07:06:32;6.00;99.90
8896;DHT22;4484;48.928;10.066;2022-12-29T07:08:59;5.90;99.90
8896;DHT22;4484;48.928;10.066;2022-12-29T07:11:26;5.90;99.90
8896;DHT22;4484;48.928;10.066;2022-12-29T07:13:53;5.90;99.90
8896;DHT22;4484;48.928;10.066;2022-12-29T07:16:20;5.90;99.90
8896;DHT22;4484;48.928;10.066;2022-12-29T07:18:47;5.90;99.90
8896;DHT22;4484;48.928;10.066;2022-12-29T07:21:14;5.80;99.90
8896;DHT22;4484;48.928;10.066;2022-12-29T07:23:41;5.80;99.90
8896;DHT22;4484;48.928;10.066;2022-12-29T07:26:11;5.70;99.90
8896;DHT22;4484;48.928;10.066;2022-12-29T07:28:38;5.70;99.90
8896;DHT22;4484;48.928;10.066;2022-12-29T07:31:06;5.70;99.90
8896;DHT22;4484;48.928;10.066;2022-12-29T07:33:33;5.70;99.90
8896;DHT22;4484;48.928;10.066;2022-12-29T07:36:00;5.70;99.90
8896;DHT22;4484;48.928;10.066;2022-12-29T07:38:26;5.70;99.90
8896;DHT22;4484;48.928;10.066;2022-12-29T07:40:57;5.70;99.90
8896;DHT22;4484;48.928;10.066;2022-12-29T07:43:25;5.60;99.90
8896;DHT22;4484;48.928;10.066;2022-12-29T07:46:13;5.60;99.90
8896;DHT22;4484;48.928;10.066;2022-12-29T07:49:00;5.60;99.90
8896;DHT22;4484;48.928;10.066;2022-12-29T07:51:26;5.60;99.90
8896;DHT22;4484;48.928;10.066;2022-12-29T07:53:53;5.60;99.90
8896;DHT22;4484;48.928;10.066;2022-12-29T07:56:20;5.60;99.90
8896;DHT22;4484;48.928;10.066;2022-12-29T07:58:47;5.60;99.90
8896;DHT22;4484;48.928;10.066;2022-12-29T08:01:14;5.60;99.90
8896;DHT22;4484;48.928;10.066;2022-12-29T08:03:42;5.60;99.90
8896;DHT22;4484;48.928;10.066;2022-12-29T08:06:10;5.60;99.90
8896;DHT22;4484;48.928;10.066;2022-12-29T08:08:37;5.70;99.90
8896;DHT22;4484;48.928;10.066;2022-12-29T08:11:04;5.70;99.90
8896;DHT22;4484;48.928;10.066;2022-12-29T08:13:31;5.80;99.90
8896;DHT22;4484;48.928;10.066;2022-12-29T08:15:59;5.80;99.90
8896;DHT22;4484;48.928;10.066;2022-12-29T08:18:26;5.90;99.90
8896;DHT22;4484;48.928;10.066;2022-12-29T08:20:53;5.90;99.90
8896;DHT22;4484;48.928;10.066;2022-12-29T08:23:21;6.00;99.90
8896;DHT22;4484;48.928;10.066;2022-12-29T08:25:57;6.10;99.90
8896;DHT22;4484;48.928;10.066;2022-12-29T08:28:24;6.20;99.90
8896;DHT22;4484;48.928;10.066;2022-12-29T08:30:51;6.30;99.90
8896;DHT22;4484;48.928;10.066;2022-12-29T08:33:18;6.40;99.90
8896;DHT22;4484;48.928;10.066;2022-12-29T08:35:45;6.50;99.90
8896;DHT22;4484;48.928;10.066;2022-12-29T08:38:12;6.70;99.90
8896;DHT22;4484;48.928;10.066;2022-12-29T08:40:39;6.80;99.90
8896;DHT22;4484;48.928;10.066;2022-12-29T08:43:06;6.90;99.90
8896;DHT22;4484;48.928;10.066;2022-12-29T08:45:34;7.00;99.90
8896;DHT22;4484;48.928;10.066;2022-12-29T08:48:01;7.10;99.90
8896;DHT22;4484;48.928;10.066;2022-12-29T08:50:28;7.30;99.90
8896;DHT22;4484;48.928;10.066;2022-12-29T08:52:55;7.40;99.90
8896;DHT22;4484;48.928;10.066;2022-12-29T08:55:22;7.50;99.90
8896;DHT22;4484;48.928;10.066;2022-12-29T08:57:50;7.60;99.90
8896;DHT22;4484;48.928;10.066;2022-12-29T09:00:18;7.80;99.90
8896;DHT22;4484;48.928;10.066;2022-12-29T09:02:47;7.90;99.90
8896;DHT22;4484;48.928;10.066;2022-12-29T09:05:14;7.90;99.90
8896;DHT22;4484;48.928;10.066;2022-12-29T09:07:41;8.00;99.90
8896;DHT22;4484;48.928;10.066;2022-12-29T09:10:08;8.10;99.90
8896;DHT22;4484;48.928;10.066;2022-12-29T09:12:35;8.20;99.90
8896;DHT22;4484;48.928;10.066;2022-12-29T09:15:04;8.30;99.90
8896;DHT22;4484;48.928;10.066;2022-12-29T09:17:31;8.40;99.90
8896;DHT22;4484;48.928;10.066;2022-12-29T09:20:17;8.50;99.90
8896;DHT22;4484;48.928;10.066;2022-12-29T09:22:45;8.50;99.90
8896;DHT22;4484;48.928;10.066;2022-12-29T09:25:13;8.60;99.90
8896;DHT22;4484;48.928;10.066;2022-12-29T09:27:40;8.70;99.90
8896;DHT22;4484;48.928;10.066;2022-12-29T09:30:10;8.70;99.90
8896;DHT22;4484;48.928;10.066;2022-12-29T09:32:38;8.80;99.90
8896;DHT22;4484;48.928;10.066;2022-12-29T09:35:11;8.90;99.90
8896;DHT22;4484;48.928;10.066;2022-12-29T09:37:38;9.00;99.90
8896;DHT22;4484;48.928;10.066;2022-12-29T09:40:06;9.00;99.90
8896;DHT22;4484;48.928;10.066;2022-12-29T09:45:56;9.20;99.90
8896;DHT22;4484;48.928;10.066;2022-12-29T09:48:29;9.20;99.90
8896;DHT22;4484;48.928;10.066;2022-12-29T09:51:00;9.20;99.90
8896;DHT22;4484;48.928;10.066;2022-12-29T09:53:30;9.20;99.90
8896;DHT22;4484;48.928;10.066;2022-12-29T09:56:00;9.20;99.90
8896;DHT22;4484;48.928;10.066;2022-12-29T09:58:48;9.10;99.90
8896;DHT22;4484;48.928;10.066;2022-12-29T10:01:31;9.10;99.90
8896;DHT22;4484;48.928;10.066;2022-12-29T10:04:00;9.10;99.90
8896;DHT22;4484;48.928;10.066;2022-12-29T10:07:01;9.10;99.90
8896;DHT22;4484;48.928;10.066;2022-12-29T10:20:56;9.50;99.90
8896;DHT22;4484;48.928;10.066;2022-12-29T10:23:26;9.60;99.90
8896;DHT22;4484;48.928;10.066;2022-12-29T10:25:55;9.70;99.90
8896;DHT22;4484;48.928;10.066;2022-12-29T10:28:42;9.70;99.90
8896;DHT22;4484;48.928;10.066;2022-12-29T10:31:16;9.80;99.90
8896;DHT22;4484;48.928;10.066;2022-12-29T10:33:43;9.80;99.90
8896;DHT22;4484;48.928;10.066;2022-12-29T10:36:18;9.80;99.90
8896;DHT22;4484;48.928;10.066;2022-12-29T10:39:14;10.00;99.90
8896;DHT22;4484;48.928;10.066;2022-12-29T10:44:19;10.20;99.90
8896;DHT22;4484;48.928;10.066;2022-12-29T10:46:57;10.30;99.90
8896;DHT22;4484;48.928;10.066;2022-12-29T10:49:26;10.40;99.90
8896;DHT22;4484;48.928;10.066;2022-12-29T10:51:58;10.40;99.90
8896;DHT22;4484;48.928;10.066;2022-12-29T10:54:40;10.50;99.90
8896;DHT22;4484;48.928;10.066;2022-12-29T10:57:13;10.40;99.90
8896;DHT22;4484;48.928;10.066;2022-12-29T10:59:41;10.40;99.90
8896;DHT22;4484;48.928;10.066;2022-12-29T11:07:31;10.60;99.90
8896;DHT22;4484;48.928;10.066;2022-12-29T11:10:36;10.70;99.90
8896;DHT22;4484;48.928;10.066;2022-12-29T11:13:12;10.80;99.90
8896;DHT22;4484;48.928;10.066;2022-12-29T11:20:45;11.10;99.90
8896;DHT22;4484;48.928;10.066;2022-12-29T11:26:23;11.40;99.90
8896;DHT22;4484;48.928;10.066;2022-12-29T11:29:21;11.40;99.90
8896;DHT22;4484;48.928;10.066;2022-12-29T11:31:54;11.40;99.90
8896;DHT22;4484;48.928;10.066;2022-12-29T11:34:39;11.30;99.90
8896;DHT22;4484;48.928;10.066;2022-12-29T11:37:12;11.70;99.90
8896;DHT22;4484;48.928;10.066;2022-12-29T11:39:52;12.10;99.90
8896;DHT22;4484;48.928;10.066;2022-12-29T11:42:47;12.20;99.90
8896;DHT22;4484;48.928;10.066;2022-12-29T11:45:26;12.20;99.90
8896;DHT22;4484;48.928;10.066;2022-12-29T11:47:57;12.10;99.90
8896;DHT22;4484;48.928;10.066;2022-12-29T11:50:30;12.10;99.90
8896;DHT22;4484;48.928;10.066;2022-12-29T11:55:27;11.80;99.90
8896;DHT22;4484;48.928;10.066;2022-12-29T11:57:56;11.80;99.90
8896;DHT22;4484;48.928;10.066;2022-12-29T12:00:24;11.70;99.90
8896;DHT22;4484;48.928;10.066;2022-12-29T12:05:45;11.70;99.90
8896;DHT22;4484;48.928;10.066;2022-12-29T12:11:11;11.60;99.90
8896;DHT22;4484;48.928;10.066;2022-12-29T12:14:00;11.60;99.90
8896;DHT22;4484;48.928;10.066;2022-12-29T12:16:58;11.50;99.90
8896;DHT22;4484;48.928;10.066;2022-12-29T12:22:30;11.50;99.90
8896;DHT22;4484;48.928;10.066;2022-12-29T12:27:47;11.50;99.90
8896;DHT22;4484;48.928;10.066;2022-12-29T12:30:18;11.50;99.90
8896;DHT22;4484;48.928;10.066;2022-12-29T12:33:05;11.40;99.90
8896;DHT22;4484;48.928;10.066;2022-12-29T13:00:14;11.10;99.90
8896;DHT22;4484;48.928;10.066;2022-12-29T13:11:20;11.10;99.90
8896;DHT22;4484;48.928;10.066;2022-12-29T13:14:14;11.10;99.90
8896;DHT22;4484;48.928;10.066;2022-12-29T13:17:25;11.10;99.90
8896;DHT22;4484;48.928;10.066;2022-12-29T13:19:55;11.00;99.90
8896;DHT22;4484;48.928;10.066;2022-12-29T13:28:30;10.80;99.90
8896;DHT22;4484;48.928;10.066;2022-12-29T13:34:24;10.80;99.90
8896;DHT22;4484;48.928;10.066;2022-12-29T13:36:59;10.70;99.90
8896;DHT22;4484;48.928;10.066;2022-12-29T13:39:32;10.70;99.90
8896;DHT22;4484;48.928;10.066;2022-12-29T13:42:02;10.70;99.90
8896;DHT22;4484;48.928;10.066;2022-12-29T13:47:22;10.60;99.90
8896;DHT22;4484;48.928;10.066;2022-12-29T13:49:52;10.60;99.90
8896;DHT22;4484;48.928;10.066;2022-12-29T13:52:51;10.60;99.90
8896;DHT22;4484;48.928;10.066;2022-12-29T13:55:32;10.50;99.90
8896;DHT22;4484;48.928;10.066;2022-12-29T14:01:54;10.40;99.90
8896;DHT22;4484;48.928;10.066;2022-12-29T14:04:27;10.40;99.90
8896;DHT22;4484;48.928;10.066;2022-12-29T14:07:11;10.40;99.90
8896;DHT22;4484;48.928;10.066;2022-12-29T14:09:50;10.30;99.90
8896;DHT22;4484;48.928;10.066;2022-12-29T14:12:39;10.30;99.90
8896;DHT22;4484;48.928;10.066;2022-12-29T14:17:43;10.20;99.90
8896;DHT22;4484;48.928;10.066;2022-12-29T14:20:20;10.20;99.90
8896;DHT22;4484;48.928;10.066;2022-12-29T14:22:57;10.20;99.90
8896;DHT22;4484;48.928;10.066;2022-12-29T14:26:00;10.20;99.90
8896;DHT22;4484;48.928;10.066;2022-12-29T14:28:37;10.20;99.90
8896;DHT22;4484;48.928;10.066;2022-12-29T14:36:40;10.10;99.90
8896;DHT22;4484;48.928;10.066;2022-12-29T14:42:06;10.00;99.90
8896;DHT22;4484;48.928;10.066;2022-12-29T14:49:52;10.00;99.90
8896;DHT22;4484;48.928;10.066;2022-12-29T14:52:24;9.90;99.90
8896;DHT22;4484;48.928;10.066;2022-12-29T14:54:54;10.00;99.90
8896;DHT22;4484;48.928;10.066;2022-12-29T15:00:04;10.00;99.90
8896;DHT22;4484;48.928;10.066;2022-12-29T15:02:36;9.90;99.90
8896;DHT22;4484;48.928;10.066;2022-12-29T15:05:14;10.00;99.90
8896;DHT22;4484;48.928;10.066;2022-12-29T15:07:46;10.00;99.90
8896;DHT22;4484;48.928;10.066;2022-12-29T15:10:15;10.00;99.90
8896;DHT22;4484;48.928;10.066;2022-12-29T15:12:51;10.00;99.90
8896;DHT22;4484;48.928;10.066;2022-12-29T15:15:27;10.00;99.90
8896;DHT22;4484;48.928;10.066;2022-12-29T15:18:25;10.00;99.90
8896;DHT22;4484;48.928;10.066;2022-12-29T15:20:55;9.90;99.90
8896;DHT22;4484;48.928;10.066;2022-12-29T15:23:23;10.00;99.90
8896;DHT22;4484;48.928;10.066;2022-12-29T15:26:02;10.00;99.90
8896;DHT22;4484;48.928;10.066;2022-12-29T15:28:41;10.00;99.90
8896;DHT22;4484;48.928;10.066;2022-12-29T15:33:42;9.90;99.90
8896;DHT22;4484;48.928;10.066;2022-12-29T15:36:18;9.80;99.90
8896;DHT22;4484;48.928;10.066;2022-12-29T15:38:46;9.70;99.90
8896;DHT22;4484;48.928;10.066;2022-12-29T15:47:02;9.60;99.90
8896;DHT22;4484;48.928;10.066;2022-12-29T15:49:30;9.60;99.90
8896;DHT22;4484;48.928;10.066;2022-12-29T15:51:58;9.60;99.90
8896;DHT22;4484;48.928;10.066;2022-12-29T15:54:30;9.60;99.90
8896;DHT22;4484;48.928;10.066;2022-12-29T15:56:58;9.50;99.90
8896;DHT22;4484;48.928;10.066;2022-12-29T15:59:30;9.40;99.90
8896;DHT22;4484;48.928;10.066;2022-12-29T16:01:59;9.40;99.90
8896;DHT22;4484;48.928;10.066;2022-12-29T16:04:34;9.30;99.90
8896;DHT22;4484;48.928;10.066;2022-12-29T16:07:30;9.20;99.90
8896;DHT22;4484;48.928;10.066;2022-12-29T16:10:05;9.20;99.90
8896;DHT22;4484;48.928;10.066;2022-12-29T16:12:36;9.10;99.90
8896;DHT22;4484;48.928;10.066;2022-12-29T16:15:06;9.10;99.90
8896;DHT22;4484;48.928;10.066;2022-12-29T16:17:44;9.10;99.90
8896;DHT22;4484;48.928;10.066;2022-12-29T16:20:19;9.10;99.90
8896;DHT22;4484;48.928;10.066;2022-12-29T16:22:49;9.10;99.90
8896;DHT22;4484;48.928;10.066;2022-12-29T16:25:28;9.20;99.90
8896;DHT22;4484;48.928;10.066;2022-12-29T16:27:55;9.20;99.90
8896;DHT22;4484;48.928;10.066;2022-12-29T16:30:27;9.30;99.90
8896;DHT22;4484;48.928;10.066;2022-12-29T16:33:05;9.30;99.90
8896;DHT22;4484;48.928;10.066;2022-12-29T16:35:44;9.30;99.90
8896;DHT22;4484;48.928;10.066;2022-12-29T16:38:20;9.40;99.90
8896;DHT22;4484;48.928;10.066;2022-12-29T16:40:56;9.40;99.90
8896;DHT22;4484;48.928;10.066;2022-12-29T16:43:31;9.40;99.90
8896;DHT22;4484;48.928;10.066;2022-12-29T16:51:30;9.10;99.90
8896;DHT22;4484;48.928;10.066;2022-12-29T16:53:59;8.90;99.90
8896;DHT22;4484;48.928;10.066;2022-12-29T16:56:28;8.70;99.90
8896;DHT22;4484;48.928;10.066;2022-12-29T17:01:36;8.50;99.90
8896;DHT22;4484;48.928;10.066;2022-12-29T17:04:09;8.40;99.90
8896;DHT22;4484;48.928;10.066;2022-12-29T17:06:38;8.20;99.90
8896;DHT22;4484;48.928;10.066;2022-12-29T17:09:22;8.10;99.90
8896;DHT22;4484;48.928;10.066;2022-12-29T17:11:52;8.10;99.90
8896;DHT22;4484;48.928;10.066;2022-12-29T17:14:35;8.00;99.90
8896;DHT22;4484;48.928;10.066;2022-12-29T17:17:09;7.90;99.90
8896;DHT22;4484;48.928;10.066;2022-12-29T17:19:37;7.90;99.90
8896;DHT22;4484;48.928;10.066;2022-12-29T17:22:34;7.80;99.90
8896;DHT22;4484;48.928;10.066;2022-12-29T17:25:02;7.70;99.90
8896;DHT22;4484;48.928;10.066;2022-12-29T17:27:51;7.70;99.90
8896;DHT22;4484;48.928;10.066;2022-12-29T17:30:21;7.70;99.90
8896;DHT22;4484;48.928;10.066;2022-12-29T17:33:04;7.60;99.90
8896;DHT22;4484;48.928;10.066;2022-12-29T17:35:31;7.60;99.90
8896;DHT22;4484;48.928;10.066;2022-12-29T17:37:58;7.60;99.90
8896;DHT22;4484;48.928;10.066;2022-12-29T17:40:28;7.60;99.90
8896;DHT22;4484;48.928;10.066;2022-12-29T17:42:57;7.50;99.90
8896;DHT22;4484;48.928;10.066;2022-12-29T17:45:31;7.50;99.90
8896;DHT22;4484;48.928;10.066;2022-12-29T17:47:59;7.50;99.90
8896;DHT22;4484;48.928;10.066;2022-12-29T17:50:29;7.50;99.90
8896;DHT22;4484;48.928;10.066;2022-12-29T17:53:03;7.50;99.90
8896;DHT22;4484;48.928;10.066;2022-12-29T17:55:31;7.50;99.90
8896;DHT22;4484;48.928;10.066;2022-12-29T17:58:25;7.50;99.90
8896;DHT22;4484;48.928;10.066;2022-12-29T18:00:55;7.40;99.90
8896;DHT22;4484;48.928;10.066;2022-12-29T18:03:43;7.40;99.90
8896;DHT22;4484;48.928;10.066;2022-12-29T18:06:11;7.40;99.90
8896;DHT22;4484;48.928;10.066;2022-12-29T18:08:39;7.40;99.90
8896;DHT22;4484;48.928;10.066;2022-12-29T18:11:24;7.30;99.90
8896;DHT22;4484;48.928;10.066;2022-12-29T18:13:52;7.30;99.90
8896;DHT22;4484;48.928;10.066;2022-12-29T18:16:20;7.30;99.90
8896;DHT22;4484;48.928;10.066;2022-12-29T18:18:48;7.30;99.90
8896;DHT22;4484;48.928;10.066;2022-12-29T18:21:17;7.30;99.90
8896;DHT22;4484;48.928;10.066;2022-12-29T18:23:46;7.30;99.90
8896;DHT22;4484;48.928;10.066;2022-12-29T18:26:16;7.30;99.90
8896;DHT22;4484;48.928;10.066;2022-12-29T18:28:53;7.30;99.90
8896;DHT22;4484;48.928;10.066;2022-12-29T18:31:22;7.30;99.90
8896;DHT22;4484;48.928;10.066;2022-12-29T18:33:50;7.20;99.90
8896;DHT22;4484;48.928;10.066;2022-12-29T18:36:18;7.20;99.90
8896;DHT22;4484;48.928;10.066;2022-12-29T18:38:46;7.20;99.90
8896;DHT22;4484;48.928;10.066;2022-12-29T18:41:24;7.20;99.90
8896;DHT22;4484;48.928;10.066;2022-12-29T18:43:51;7.20;99.90
8896;DHT22;4484;48.928;10.066;2022-12-29T18:46:18;7.20;99.90
8896;DHT22;4484;48.928;10.066;2022-12-29T18:48:49;7.20;99.90
8896;DHT22;4484;48.928;10.066;2022-12-29T18:51:19;7.20;99.90
8896;DHT22;4484;48.928;10.066;2022-12-29T18:53:47;7.20;99.90
8896;DHT22;4484;48.928;10.066;2022-12-29T18:56:14;7.20;99.90
8896;DHT22;4484;48.928;10.066;2022-12-29T18:58:41;7.20;99.90
8896;DHT22;4484;48.928;10.066;2022-12-29T19:01:18;7.20;99.90
8896;DHT22;4484;48.928;10.066;2022-12-29T19:03:46;7.20;99.90
8896;DHT22;4484;48.928;10.066;2022-12-29T19:06:14;7.20;99.90
8896;DHT22;4484;48.928;10.066;2022-12-29T19:08:41;7.20;99.90